createdAt,value
2017-06-14T00:01:58.761Z,90.00
2017-06-14T00:04:26.932Z,90.00
2017-06-14T00:06:55.114Z,90.10
2017-06-14T00:09:23.238Z,90.20
2017-06-14T00:11:52.844Z,90.20
2017-06-14T00:14:21.002Z,90.20
2017-06-14T00:16:49.161Z,90.10
2017-06-14T00:19:17.370Z,90.30
2017-06-14T00:21:45.508Z,90.40
2017-06-14T00:24:13.629Z,90.50
2017-06-14T00:26:41.781Z,90.60
2017-06-14T00:29:09.994Z,90.80
2017-06-14T00:31:38.265Z,90.70
2017-06-14T00:34:06.411Z,90.90
2017-06-14T00:36:34.575Z,91.10
2017-06-14T00:39:03.002Z,91.10
2017-06-14T00:41:31.516Z,91.10
2017-06-14T00:44:00.343Z,91.30
2017-06-14T00:46:28.529Z,91.30
2017-06-14T00:48:56.704Z,91.30
2017-06-14T00:51:24.845Z,91.50
2017-06-14T00:53:52.977Z,91.40
2017-06-14T00:56:21.251Z,91.50
2017-06-14T00:58:49.396Z,91.60
2017-06-14T01:01:17.605Z,91.60
2017-06-14T01:03:46.550Z,91.80
2017-06-14T01:06:14.747Z,91.90
2017-06-14T01:08:42.942Z,91.90
2017-06-14T01:11:11.080Z,91.90
2017-06-14T01:13:40.135Z,91.80
2017-06-14T01:16:08.885Z,91.80
2017-06-14T01:18:37.049Z,91.80
2017-06-14T01:21:06.106Z,91.80
2017-06-14T01:23:34.306Z,91.90
2017-06-14T01:26:03.296Z,91.90
2017-06-14T01:28:31.436Z,91.90
2017-06-14T01:30:59.560Z,92.00
2017-06-14T01:33:27.739Z,92.10
2017-06-14T01:35:56.411Z,92.00
2017-06-14T01:38:24.579Z,92.00
2017-06-14T01:40:52.765Z,92.10
2017-06-14T01:43:20.898Z,92.20
2017-06-14T01:45:49.847Z,92.30
2017-06-14T01:48:18.035Z,92.30
2017-06-14T01:50:46.961Z,92.30
2017-06-14T01:53:15.183Z,92.30
2017-06-14T01:55:43.321Z,92.20
2017-06-14T01:58:11.490Z,92.20
2017-06-14T02:00:39.650Z,92.20
2017-06-14T02:03:07.845Z,92.20
2017-06-14T02:05:35.968Z,92.30
2017-06-14T02:08:04.108Z,92.40
2017-06-14T02:10:32.284Z,92.40
2017-06-14T02:13:00.412Z,92.40
2017-06-14T02:15:28.602Z,92.40
2017-06-14T02:17:56.927Z,92.30
2017-06-14T02:20:25.111Z,92.50
2017-06-14T02:22:53.312Z,92.40
2017-06-14T02:25:21.503Z,92.60
2017-06-14T02:27:49.679Z,92.60
2017-06-14T02:30:17.795Z,92.60
2017-06-14T02:32:46.038Z,93.00
2017-06-14T02:35:14.314Z,92.80
2017-06-14T02:37:42.667Z,92.70
2017-06-14T02:40:10.839Z,92.70
2017-06-14T02:42:39.860Z,92.80
2017-06-14T02:45:08.019Z,92.70
2017-06-14T02:47:36.244Z,92.80
2017-06-14T02:50:04.373Z,92.70
2017-06-14T02:52:32.553Z,92.50
2017-06-14T02:55:00.681Z,92.60
2017-06-14T02:57:28.822Z,92.40
2017-06-14T02:59:56.991Z,92.50
2017-06-14T03:02:25.124Z,92.30
2017-06-14T03:04:53.413Z,92.30
2017-06-14T03:07:22.166Z,92.20
2017-06-14T03:09:50.298Z,92.30
2017-06-14T03:12:18.430Z,92.40
2017-06-14T03:14:46.583Z,92.50
2017-06-14T03:17:15.242Z,92.40
2017-06-14T03:19:43.395Z,92.60
2017-06-14T03:22:11.519Z,92.70
2017-06-14T03:24:39.647Z,92.60
2017-06-14T03:27:07.858Z,92.70
2017-06-14T03:29:35.993Z,92.70
2017-06-14T03:32:04.237Z,92.80
2017-06-14T03:34:32.385Z,92.80
2017-06-14T03:37:00.510Z,92.70
2017-06-14T03:39:28.716Z,92.60
2017-06-14T03:41:56.819Z,92.40
2017-06-14T03:44:24.979Z,92.30
2017-06-14T03:46:54.466Z,92.10
2017-06-14T03:49:22.620Z,92.00
2017-06-14T03:51:53.756Z,91.60
2017-06-14T03:54:21.896Z,91.60
2017-06-14T03:56:50.080Z,91.50
2017-06-14T03:59:18.920Z,91.60
2017-06-14T04:01:47.818Z,91.40
2017-06-14T04:04:16.865Z,91.30
2017-06-14T04:06:44.997Z,91.20
2017-06-14T04:09:13.113Z,91.20
2017-06-14T04:11:41.258Z,91.10
2017-06-14T04:14:09.382Z,90.90
2017-06-14T04:16:37.519Z,90.80
2017-06-14T04:19:05.701Z,91.00
2017-06-14T04:21:33.894Z,91.10
2017-06-14T04:24:02.161Z,91.00
2017-06-14T04:26:30.284Z,90.80
2017-06-14T04:28:58.517Z,90.40
2017-06-14T04:31:27.791Z,90.40
2017-06-14T04:33:56.116Z,90.50
2017-06-14T04:36:24.257Z,90.50
2017-06-14T04:38:52.415Z,90.60
2017-06-14T04:41:20.593Z,90.70
2017-06-14T04:43:48.741Z,90.60
2017-06-14T04:46:16.940Z,90.40
2017-06-14T04:48:45.089Z,90.10
2017-06-14T04:51:13.206Z,90.20
2017-06-14T04:53:41.443Z,90.10
2017-06-14T04:56:10.823Z,89.80
2017-06-14T04:58:39.012Z,89.70
2017-06-14T05:01:07.153Z,89.90
2017-06-14T05:03:36.056Z,89.60
2017-06-14T05:06:04.285Z,89.60
2017-06-14T05:08:32.929Z,89.30
2017-06-14T05:11:01.190Z,89.70
2017-06-14T05:13:29.960Z,89.20
2017-06-14T05:15:58.234Z,89.40
2017-06-14T05:18:26.416Z,89.80
2017-06-14T05:20:54.565Z,89.20
2017-06-14T05:23:22.819Z,89.10
2017-06-14T05:25:50.945Z,88.80
2017-06-14T05:28:19.059Z,88.40
2017-06-14T05:30:47.963Z,88.40
2017-06-14T05:33:16.074Z,88.20
2017-06-14T05:35:44.218Z,87.90
2017-06-14T05:38:12.435Z,87.60
2017-06-14T05:40:40.615Z,87.10
2017-06-14T05:43:08.773Z,86.90
2017-06-14T05:45:36.912Z,86.50
2017-06-14T05:48:05.234Z,87.00
2017-06-14T05:50:34.219Z,86.90
2017-06-14T05:53:02.383Z,86.30
2017-06-14T05:55:30.526Z,86.40
2017-06-14T05:57:58.653Z,86.50
2017-06-14T06:00:26.801Z,86.50
2017-06-14T06:02:54.917Z,86.20
2017-06-14T06:05:23.114Z,86.00
2017-06-14T06:07:51.468Z,86.20
2017-06-14T06:10:19.618Z,86.70
2017-06-14T06:12:47.895Z,85.70
2017-06-14T06:15:16.016Z,85.10
2017-06-14T06:17:44.269Z,85.50
2017-06-14T06:20:12.503Z,85.00
2017-06-14T06:22:40.742Z,84.70
2017-06-14T06:25:08.880Z,84.60
2017-06-14T06:27:37.059Z,84.40
2017-06-14T06:30:05.263Z,86.40
2017-06-14T06:32:33.411Z,86.80
2017-06-14T06:35:02.399Z,82.80
2017-06-14T06:37:30.557Z,83.00
2017-06-14T06:39:58.686Z,82.60
2017-06-14T06:42:26.959Z,82.40
2017-06-14T06:44:55.099Z,82.20
2017-06-14T06:47:23.221Z,82.40
2017-06-14T06:49:51.406Z,82.90
2017-06-14T06:52:19.567Z,83.00
2017-06-14T06:54:47.737Z,81.80
2017-06-14T06:57:16.779Z,81.30
2017-06-14T06:59:45.435Z,81.20
2017-06-14T07:02:13.616Z,81.50
2017-06-14T07:04:41.772Z,81.70
2017-06-14T07:07:10.244Z,81.30
2017-06-14T07:09:39.156Z,79.70
2017-06-14T07:12:07.910Z,79.70
2017-06-14T07:14:36.204Z,80.30
2017-06-14T07:17:05.851Z,78.40
2017-06-14T07:19:34.030Z,78.30
2017-06-14T07:22:02.562Z,78.20
2017-06-14T07:24:32.176Z,77.30
2017-06-14T07:27:00.366Z,77.20
2017-06-14T07:29:28.915Z,77.80
2017-06-14T07:31:57.907Z,73.90
2017-06-14T07:34:26.018Z,73.80
2017-06-14T07:36:55.094Z,75.60
2017-06-14T07:39:23.381Z,75.80
2017-06-14T07:41:52.319Z,75.50
2017-06-14T07:44:21.255Z,75.00
2017-06-14T07:46:49.389Z,75.90
2017-06-14T07:49:17.525Z,75.80
2017-06-14T07:51:45.659Z,75.90
2017-06-14T07:54:13.867Z,74.40
2017-06-14T07:56:41.978Z,75.20
2017-06-14T07:59:10.140Z,74.70
2017-06-14T08:01:38.267Z,76.30
2017-06-14T08:04:07.030Z,76.00
2017-06-14T08:06:35.181Z,75.30
2017-06-14T08:09:03.303Z,74.50
2017-06-14T08:11:31.882Z,73.10
2017-06-14T08:14:00.070Z,73.70
2017-06-14T08:16:28.195Z,73.00
2017-06-14T08:18:57.377Z,71.90
2017-06-14T08:21:25.503Z,72.70
2017-06-14T08:23:53.785Z,73.20
2017-06-14T08:26:23.577Z,72.90
2017-06-14T08:28:52.391Z,72.90
2017-06-14T08:31:20.548Z,72.00
2017-06-14T08:33:48.681Z,73.90
2017-06-14T08:36:16.873Z,72.50
2017-06-14T08:38:45.103Z,72.10
2017-06-14T08:41:13.915Z,71.70
2017-06-14T08:43:42.146Z,70.90
2017-06-14T08:46:11.693Z,70.00
2017-06-14T08:48:39.940Z,69.60
2017-06-14T08:51:09.525Z,68.00
2017-06-14T08:53:37.730Z,67.80
2017-06-14T08:56:05.885Z,68.00
2017-06-14T08:58:34.793Z,65.50
2017-06-14T09:01:04.374Z,64.40
2017-06-14T09:03:32.542Z,64.20
2017-06-14T09:06:00.739Z,65.60
2017-06-14T09:08:28.877Z,66.80
2017-06-14T09:10:57.047Z,66.40
2017-06-14T09:13:25.202Z,66.10
2017-06-14T09:15:53.395Z,66.40
2017-06-14T09:18:21.549Z,65.60
2017-06-14T09:20:50.516Z,65.40
2017-06-14T09:23:18.643Z,64.60
2017-06-14T09:25:46.830Z,67.10
2017-06-14T09:28:15.067Z,69.00
2017-06-14T09:30:43.509Z,67.80
2017-06-14T09:33:11.836Z,67.90
2017-06-14T09:35:40.061Z,68.50
2017-06-14T09:38:08.241Z,68.80
2017-06-14T09:40:36.394Z,67.80
2017-06-14T09:43:04.541Z,67.00
2017-06-14T09:45:32.966Z,66.50
2017-06-14T09:48:01.278Z,65.70
2017-06-14T09:50:29.545Z,64.20
2017-06-14T09:52:57.670Z,63.70
2017-06-14T09:55:25.865Z,64.30
2017-06-14T09:57:54.087Z,63.30
2017-06-14T10:00:22.219Z,64.40
2017-06-14T10:02:50.936Z,63.90
2017-06-14T10:05:19.073Z,63.60
2017-06-14T10:07:47.214Z,62.90
2017-06-14T10:10:15.365Z,62.50
2017-06-14T10:12:43.730Z,61.70
2017-06-14T10:15:11.975Z,61.90
2017-06-14T10:17:40.109Z,61.20
2017-06-14T10:20:08.881Z,61.70
2017-06-14T10:22:37.025Z,63.40
2017-06-14T10:25:05.451Z,62.70
2017-06-14T10:27:33.626Z,62.30
2017-06-14T10:30:01.748Z,63.60
2017-06-14T10:32:29.869Z,62.80
2017-06-14T10:34:58.016Z,61.50
2017-06-14T10:37:26.171Z,62.80
2017-06-14T10:39:54.342Z,62.60
2017-06-14T10:42:22.472Z,61.60
2017-06-14T10:44:50.610Z,60.30
2017-06-14T10:47:18.825Z,59.10
2017-06-14T10:49:46.939Z,59.80
2017-06-14T10:52:15.101Z,59.80
2017-06-14T10:54:43.254Z,59.90
2017-06-14T10:57:11.405Z,59.60
2017-06-14T10:59:39.721Z,59.40
2017-06-14T11:02:08.685Z,59.30
2017-06-14T11:04:36.997Z,59.30
2017-06-14T11:07:05.154Z,59.20
2017-06-14T11:09:33.378Z,59.50
2017-06-14T11:12:02.271Z,59.40
2017-06-14T11:14:30.422Z,59.40
2017-06-14T11:16:58.705Z,59.70
2017-06-14T11:19:26.837Z,60.30
2017-06-14T11:21:55.738Z,60.30
2017-06-14T11:24:23.864Z,60.00
2017-06-14T11:26:52.018Z,59.80
2017-06-14T11:29:21.078Z,60.20
2017-06-14T11:31:50.015Z,60.10
2017-06-14T11:34:18.151Z,60.10
2017-06-14T11:36:46.321Z,60.20
2017-06-14T11:39:14.461Z,61.20
2017-06-14T11:41:42.740Z,60.90
2017-06-14T11:44:11.309Z,60.10
2017-06-14T11:46:39.449Z,59.80
2017-06-14T11:49:07.596Z,59.40
2017-06-14T11:51:35.725Z,59.60
2017-06-14T11:54:03.886Z,59.00
2017-06-14T11:56:32.581Z,56.50
2017-06-14T11:59:00.720Z,56.90
2017-06-14T12:01:28.881Z,56.70
2017-06-14T12:03:57.776Z,57.60
2017-06-14T12:06:26.015Z,57.80
2017-06-14T12:08:54.128Z,57.70
2017-06-14T12:11:22.252Z,56.30
2017-06-14T12:13:50.457Z,57.40
2017-06-14T12:16:18.797Z,57.30
2017-06-14T12:18:46.967Z,57.90
2017-06-14T12:21:15.915Z,57.20
2017-06-14T12:23:44.945Z,57.20
2017-06-14T12:26:13.532Z,57.00
2017-06-14T12:28:41.683Z,56.70
2017-06-14T12:31:09.848Z,57.10
2017-06-14T12:33:37.968Z,57.60
2017-06-14T12:36:06.084Z,57.60
2017-06-14T12:38:34.257Z,56.50
2017-06-14T12:41:02.421Z,56.50
2017-06-14T12:43:30.589Z,57.00
2017-06-14T12:45:58.731Z,56.70
2017-06-14T12:48:26.855Z,56.10
2017-06-14T12:50:55.078Z,56.80
2017-06-14T12:53:23.216Z,56.10
2017-06-14T12:55:51.393Z,57.10
2017-06-14T12:58:19.533Z,58.40
2017-06-14T13:00:48.587Z,57.70
2017-06-14T13:03:16.786Z,56.70
2017-06-14T13:05:45.583Z,57.40
2017-06-14T13:08:14.256Z,57.40
2017-06-14T13:10:42.453Z,57.10
2017-06-14T13:13:11.209Z,56.50
2017-06-14T13:15:40.164Z,58.00
2017-06-14T13:18:08.470Z,57.70
2017-06-14T13:20:37.414Z,58.10
2017-06-14T13:23:06.313Z,58.30
2017-06-14T13:25:34.481Z,58.30
2017-06-14T13:28:02.650Z,59.40
2017-06-14T13:30:30.948Z,60.00
2017-06-14T13:32:59.124Z,61.20
2017-06-14T13:35:27.295Z,60.60
2017-06-14T13:37:55.437Z,59.50
2017-06-14T13:40:23.589Z,58.60
2017-06-14T13:42:51.711Z,57.30
2017-06-14T13:45:20.073Z,57.50
2017-06-14T13:47:49.227Z,58.00
2017-06-14T13:50:17.412Z,58.60
2017-06-14T13:52:46.419Z,58.90
2017-06-14T13:55:14.525Z,58.30
2017-06-14T13:57:42.727Z,58.10
2017-06-14T14:00:11.033Z,57.70
2017-06-14T14:02:39.158Z,57.60
2017-06-14T14:05:07.306Z,57.70
2017-06-14T14:07:35.441Z,57.50
2017-06-14T14:10:03.674Z,57.90
2017-06-14T14:12:32.017Z,58.10
2017-06-14T14:15:00.155Z,58.30
2017-06-14T14:17:28.384Z,58.20
2017-06-14T14:19:57.140Z,58.80
2017-06-14T14:22:25.414Z,59.30
2017-06-14T14:24:53.547Z,59.10
2017-06-14T14:27:21.686Z,59.70
2017-06-14T14:29:49.852Z,59.80
2017-06-14T14:32:18.027Z,59.70
2017-06-14T14:34:46.753Z,59.70
2017-06-14T14:37:14.911Z,59.50
2017-06-14T14:39:43.064Z,60.20
2017-06-14T14:42:11.393Z,59.80
2017-06-14T14:44:39.563Z,59.40
2017-06-14T14:47:07.710Z,58.80
2017-06-14T14:49:36.754Z,59.40
2017-06-14T14:52:05.012Z,59.40
2017-06-14T14:54:33.152Z,58.40
2017-06-14T14:57:01.273Z,59.40
2017-06-14T14:59:29.576Z,60.00
2017-06-14T15:01:57.708Z,59.90
2017-06-14T15:04:25.957Z,60.00
2017-06-14T15:06:54.107Z,60.40
2017-06-14T15:09:22.293Z,60.00
2017-06-14T15:11:51.155Z,60.00
2017-06-14T15:14:19.331Z,59.80
2017-06-14T15:16:47.507Z,60.30
2017-06-14T15:19:15.733Z,60.30
2017-06-14T15:21:43.843Z,61.10
2017-06-14T15:24:12.506Z,62.20
2017-06-14T15:26:40.656Z,62.10
2017-06-14T15:29:08.894Z,61.50
2017-06-14T15:31:37.025Z,61.00
2017-06-14T15:34:05.164Z,61.10
2017-06-14T15:36:33.339Z,60.90
2017-06-14T15:39:01.454Z,60.40
2017-06-14T15:41:29.665Z,62.40
2017-06-14T15:43:57.791Z,62.30
2017-06-14T15:46:25.928Z,61.90
2017-06-14T15:48:55.022Z,62.20
2017-06-14T15:51:23.154Z,62.30
2017-06-14T15:53:51.323Z,62.60
2017-06-14T15:56:19.466Z,61.60
2017-06-14T15:58:47.599Z,60.60
2017-06-14T16:01:15.843Z,62.10
2017-06-14T16:03:43.967Z,61.90
2017-06-14T16:06:12.138Z,62.50
2017-06-14T16:08:40.262Z,62.30
2017-06-14T16:11:08.458Z,62.10
2017-06-14T16:13:36.662Z,62.10
2017-06-14T16:16:06.116Z,61.30
2017-06-14T16:18:34.318Z,61.10
2017-06-14T16:21:02.517Z,62.60
2017-06-14T16:23:30.695Z,62.90
2017-06-14T16:25:58.811Z,63.30
2017-06-14T16:28:28.105Z,63.70
2017-06-14T16:30:56.275Z,62.80
2017-06-14T16:33:24.471Z,62.30
2017-06-14T16:35:52.790Z,63.60
2017-06-14T16:38:23.025Z,63.20
2017-06-14T16:40:52.236Z,62.40
2017-06-14T16:43:21.855Z,62.40
2017-06-14T16:45:50.594Z,62.30
2017-06-14T16:48:18.855Z,61.80
2017-06-14T16:50:46.993Z,63.10
2017-06-14T16:53:15.173Z,62.40
2017-06-14T16:55:43.308Z,62.60
2017-06-14T16:58:11.435Z,62.90
2017-06-14T17:00:40.365Z,61.90
2017-06-14T17:03:08.487Z,61.80
2017-06-14T17:05:36.705Z,62.00
2017-06-14T17:08:05.234Z,62.30
2017-06-14T17:10:33.422Z,63.00
2017-06-14T17:13:01.581Z,63.50
2017-06-14T17:15:30.572Z,62.90
2017-06-14T17:17:58.747Z,62.80
2017-06-14T17:20:26.935Z,62.30
2017-06-14T17:22:55.428Z,62.10
2017-06-14T17:25:23.669Z,62.30
2017-06-14T17:27:51.959Z,61.60
2017-06-14T17:30:20.463Z,62.80
2017-06-14T17:32:48.689Z,63.30
2017-06-14T17:35:18.370Z,62.30
2017-06-14T17:37:46.583Z,62.30
2017-06-14T17:40:14.714Z,63.00
2017-06-14T17:42:43.048Z,64.30
2017-06-14T17:45:11.176Z,63.00
2017-06-14T17:47:39.312Z,63.50
2017-06-14T17:50:07.653Z,63.40
2017-06-14T17:52:52.380Z,63.30
2017-06-14T17:55:20.845Z,63.70
2017-06-14T17:57:49.935Z,63.40
2017-06-14T18:00:18.305Z,63.30
2017-06-14T18:02:46.563Z,63.10
2017-06-14T18:05:16.068Z,63.80
2017-06-14T18:07:44.492Z,63.70
2017-06-14T18:10:12.638Z,64.40
2017-06-14T18:12:41.272Z,64.40
2017-06-14T18:15:09.577Z,64.60
2017-06-14T18:17:38.475Z,65.50
2017-06-14T18:20:06.653Z,65.50
2017-06-14T18:22:34.801Z,65.30
2017-06-14T18:25:03.340Z,65.50
2017-06-14T18:27:31.506Z,65.90
2017-06-14T18:29:59.998Z,66.00
2017-06-14T18:32:28.166Z,66.00
2017-06-14T18:34:56.305Z,66.40
2017-06-14T18:37:24.438Z,66.60
2017-06-14T18:39:52.656Z,66.90
2017-06-14T18:42:20.811Z,67.30
2017-06-14T18:44:49.836Z,67.40
2017-06-14T18:47:17.950Z,67.70
2017-06-14T18:49:46.089Z,67.90
2017-06-14T18:52:14.242Z,67.80
2017-06-14T18:54:42.377Z,68.30
2017-06-14T18:57:10.570Z,68.30
2017-06-14T18:59:39.460Z,69.20
2017-06-14T19:02:08.353Z,68.50
2017-06-14T19:04:37.281Z,68.90
2017-06-14T19:07:05.412Z,68.80
2017-06-14T19:09:33.561Z,69.70
2017-06-14T19:12:01.697Z,69.80
2017-06-14T19:14:29.870Z,69.50
2017-06-14T19:16:58.073Z,70.30
2017-06-14T19:19:26.394Z,70.60
2017-06-14T19:21:55.106Z,71.60
2017-06-14T19:24:24.722Z,71.20
2017-06-14T19:26:58.726Z,70.80
2017-06-14T19:29:27.608Z,71.60
2017-06-14T19:31:55.738Z,71.40
2017-06-14T19:34:23.901Z,71.20
2017-06-14T19:36:52.050Z,71.00
2017-06-14T19:39:20.636Z,71.20
2017-06-14T19:41:48.854Z,71.70
2017-06-14T19:44:17.381Z,71.80
2017-06-14T19:46:45.582Z,72.60
2017-06-14T19:49:13.743Z,72.60
2017-06-14T19:51:42.016Z,72.90
2017-06-14T19:54:10.166Z,72.80
2017-06-14T19:56:38.297Z,72.90
2017-06-14T19:59:06.530Z,72.70
2017-06-14T20:01:34.912Z,72.50
2017-06-14T20:04:03.122Z,72.70
2017-06-14T20:06:31.277Z,72.70
2017-06-14T20:08:59.411Z,73.20
2017-06-14T20:11:28.408Z,74.00
2017-06-14T20:13:56.593Z,73.80
2017-06-14T20:16:25.821Z,73.70
2017-06-14T20:18:54.709Z,74.20
2017-06-14T20:21:22.987Z,74.20
2017-06-14T20:23:51.178Z,74.90
2017-06-14T20:26:19.918Z,75.30
2017-06-14T20:28:48.123Z,75.70
2017-06-14T20:31:17.127Z,77.30
2017-06-14T20:33:46.793Z,77.60
2017-06-14T20:36:15.074Z,77.50
2017-06-14T20:38:43.261Z,78.00
2017-06-14T20:41:11.805Z,78.30
2017-06-14T20:43:40.216Z,78.50
2017-06-14T20:46:09.156Z,79.50
2017-06-14T20:48:37.333Z,79.50
2017-06-14T20:51:05.874Z,79.80
2017-06-14T20:53:34.137Z,80.00
2017-06-14T20:56:03.091Z,79.50
2017-06-14T20:58:31.245Z,79.50
2017-06-14T21:01:00.295Z,79.00
2017-06-14T21:03:28.844Z,78.90
2017-06-14T21:05:57.032Z,79.00
2017-06-14T21:08:25.340Z,79.10
2017-06-14T21:10:53.510Z,78.90
2017-06-14T21:13:21.733Z,79.40
2017-06-14T21:15:51.090Z,79.30
2017-06-14T21:18:19.242Z,79.30
2017-06-14T21:20:47.410Z,79.40
2017-06-14T21:23:15.580Z,79.00
2017-06-14T21:25:43.754Z,79.00
2017-06-14T21:28:12.690Z,80.00
2017-06-14T21:30:41.798Z,81.10
2017-06-14T21:33:10.340Z,80.00
2017-06-14T21:35:38.513Z,80.70
2017-06-14T21:38:06.759Z,81.10
2017-06-14T21:40:35.719Z,80.30
2017-06-14T21:43:03.844Z,81.00
2017-06-14T21:45:31.995Z,81.40
2017-06-14T21:48:00.132Z,81.40
2017-06-14T21:50:28.293Z,81.10
2017-06-14T21:52:56.419Z,81.10
2017-06-14T21:55:24.717Z,81.90
2017-06-14T21:57:52.851Z,82.00
2017-06-14T22:00:20.984Z,82.60
2017-06-14T22:02:49.170Z,83.40
2017-06-14T22:05:17.313Z,83.70
2017-06-14T22:07:45.437Z,83.90
2017-06-14T22:10:13.580Z,84.30
2017-06-14T22:12:41.699Z,84.20
2017-06-14T22:15:09.848Z,84.60
2017-06-14T22:17:38.005Z,84.80
2017-06-14T22:20:06.136Z,84.60
2017-06-14T22:22:34.293Z,84.40
2017-06-14T22:25:02.433Z,84.60
2017-06-14T22:27:30.611Z,84.60
2017-06-14T22:29:58.755Z,84.60
2017-06-14T22:32:26.901Z,85.00
2017-06-14T22:34:55.130Z,85.40
2017-06-14T22:37:23.278Z,85.40
2017-06-14T22:39:51.434Z,85.90
2017-06-14T22:42:19.548Z,86.00
2017-06-14T22:44:47.729Z,86.00
2017-06-14T22:47:15.854Z,86.50
2017-06-14T22:49:45.354Z,86.60
2017-06-14T22:52:13.578Z,86.50
2017-06-14T22:54:41.783Z,86.60
2017-06-14T22:57:10.151Z,86.60
2017-06-14T22:59:39.427Z,86.80
2017-06-14T23:02:07.558Z,86.90
2017-06-14T23:04:35.697Z,87.00
2017-06-14T23:07:04.667Z,86.90
2017-06-14T23:09:33.554Z,86.90
2017-06-14T23:12:01.750Z,86.90
2017-06-14T23:14:29.885Z,87.00
2017-06-14T23:16:58.394Z,87.00
2017-06-14T23:19:26.521Z,86.90
2017-06-14T23:21:54.676Z,86.90
2017-06-14T23:24:23.606Z,86.80
2017-06-14T23:26:51.741Z,86.50
2017-06-14T23:29:20.937Z,86.50
2017-06-14T23:31:49.056Z,86.40
2017-06-14T23:34:17.184Z,86.10
2017-06-14T23:36:45.363Z,86.60
2017-06-14T23:39:13.491Z,86.90
2017-06-14T23:41:41.669Z,87.20
2017-06-14T23:44:10.631Z,87.10
2017-06-14T23:46:38.776Z,87.00
2017-06-14T23:49:06.899Z,87.10
2017-06-14T23:51:35.165Z,86.90
2017-06-14T23:54:03.341Z,87.70
2017-06-14T23:56:31.493Z,86.60
2017-06-14T23:58:59.637Z,86.60
